Time;durP1;ratioP1;P1;durP2;ratioP2;P2;SDS_P1;SDS_P2;PMS_P1;PMS_P2;Temp;Humidity;BMP_temperature;BMP_pressure;BME280_temperature;BME280_humidity;BME280_pressure;Samples;Min_cycle;Max_cycle;Signal;HPM_P1;HPM_P2
2022/01/23 00:02:29;;;;;;;3.50;2.00;;;20.10;49.90;;;;;;5115854;28;20454;-70
2022/01/23 00:04:55;;;;;;;3.43;1.80;;;20.00;50.00;;;;;;5098303;28;20413;-70
2022/01/23 00:07:21;;;;;;;3.60;1.90;;;20.00;50.00;;;;;;5098234;28;20908;-70
2022/01/23 00:09:47;;;;;;;2.80;1.80;;;20.00;49.80;;;;;;5097981;28;20752;-70
2022/01/23 00:12:18;;;;;;;3.50;1.97;;;20.00;50.00;;;;;;5097502;28;20413;-70
2022/01/23 00:17:33;;;;;;;7.87;2.10;;;20.00;50.00;;;;;;5116645;28;20411;-70
2022/01/23 00:20:01;;;;;;;3.53;1.80;;;20.00;50.10;;;;;;5097671;28;20437;-70
2022/01/23 00:22:49;;;;;;;4.23;2.00;;;20.00;50.10;;;;;;5097410;28;20804;-70
2022/01/23 00:30:45;;;;;;;2.90;1.90;;;20.00;50.20;;;;;;5116450;28;20424;-71
2022/01/23 00:33:12;;;;;;;3.90;2.20;;;20.00;50.20;;;;;;5097252;28;20413;-71
2022/01/23 00:35:40;;;;;;;3.73;2.30;;;20.00;50.30;;;;;;5097676;28;20509;-71
2022/01/23 00:38:08;;;;;;;2.63;1.73;;;20.00;50.20;;;;;;5096570;28;20433;-71
2022/01/23 00:40:35;;;;;;;2.83;1.80;;;20.00;50.30;;;;;;5097118;28;20429;-70
2022/01/23 00:43:06;;;;;;;3.13;2.30;;;20.00;50.30;;;;;;5097099;28;20453;-70
2022/01/23 00:45:41;;;;;;;2.50;1.57;;;19.90;50.40;;;;;;5097747;28;20405;-71
2022/01/23 00:48:08;;;;;;;2.67;1.93;;;20.00;50.50;;;;;;5097324;28;20928;-70
2022/01/23 00:50:37;;;;;;;3.03;2.13;;;20.00;50.50;;;;;;5096789;28;20421;-70
2022/01/23 00:53:08;;;;;;;3.80;1.93;;;20.00;50.50;;;;;;5115246;28;20469;-70
2022/01/23 00:55:34;;;;;;;7.00;2.07;;;20.00;50.60;;;;;;5097378;28;20420;-71
2022/01/23 00:57:59;;;;;;;5.33;2.50;;;20.00;50.40;;;;;;5115597;28;20412;-71
2022/01/23 01:00:25;;;;;;;4.37;3.07;;;19.90;50.20;;;;;;5097010;28;20643;-70
2022/01/23 01:02:51;;;;;;;3.10;1.83;;;19.90;50.50;;;;;;5096389;28;20595;-70
2022/01/23 01:05:17;;;;;;;4.87;2.83;;;19.90;50.40;;;;;;5097093;28;20221;-69
2022/01/23 01:07:42;;;;;;;2.63;2.03;;;20.00;50.50;;;;;;5097163;28;20256;-70
2022/01/23 01:10:16;;;;;;;3.07;1.90;;;19.90;50.40;;;;;;5096868;28;20515;-69
2022/01/23 01:12:44;;;;;;;2.97;2.10;;;19.90;50.40;;;;;;5096711;28;20627;-70
2022/01/23 01:36:52;;;;;;;3.90;1.60;;;20.00;50.40;;;;;;5114909;28;20401;-69
2022/01/23 01:39:23;;;;;;;2.20;1.73;;;19.90;50.80;;;;;;5113926;28;20879;-68
2022/01/23 01:41:51;;;;;;;4.97;2.17;;;19.90;50.70;;;;;;5095858;28;20412;-69
2022/01/23 01:44:17;;;;;;;4.27;2.10;;;19.90;50.50;;;;;;5096289;28;20425;-70
2022/01/23 01:46:44;;;;;;;10.10;2.10;;;20.00;50.70;;;;;;5096287;28;20412;-69
2022/01/23 01:49:10;;;;;;;2.60;1.80;;;20.00;50.60;;;;;;5096077;28;20397;-72
2022/01/23 01:51:36;;;;;;;10.27;2.10;;;20.00;50.70;;;;;;5095310;28;20484;-71
2022/01/23 01:54:16;;;;;;;8.03;2.20;;;20.00;50.80;;;;;;5096042;28;20424;-69
2022/01/23 01:56:53;;;;;;;7.10;4.80;;;20.00;50.50;;;;;;5096375;28;20594;-70
2022/01/23 02:10:04;;;;;;;15.60;6.97;;;17.80;57.30;;;;;;5114524;28;20754;-71
2022/01/23 02:13:01;;;;;;;8.47;5.90;;;18.30;56.90;;;;;;5095589;28;20409;-68
2022/01/23 02:51:04;;;;;;;6.70;3.03;;;19.40;57.60;;;;;;5113823;28;20737;-69
2022/01/23 02:55:58;;;;;;;6.07;3.03;;;19.40;57.80;;;;;;5113690;28;20845;-69
2022/01/23 02:58:31;;;;;;;8.10;3.77;;;19.40;57.70;;;;;;5095207;28;20626;-68
2022/01/23 03:04:08;;;;;;;6.27;2.87;;;19.50;57.90;;;;;;5083071;28;20470;-69
2022/01/23 03:12:42;;;;;;;6.87;3.87;;;19.50;57.70;;;;;;5085350;28;20767;-69
2022/01/23 03:15:07;;;;;;;8.53;3.40;;;19.50;57.60;;;;;;5117094;28;20422;-70
2022/01/23 03:33:46;;;;;;;6.63;2.63;;;19.50;57.90;;;;;;5117389;28;20448;-71
2022/01/23 03:36:12;;;;;;;5.40;3.40;;;19.60;57.90;;;;;;5098480;28;20253;-70
2022/01/23 03:38:37;;;;;;;4.73;2.90;;;19.50;58.00;;;;;;5098786;28;20171;-68
2022/01/23 03:41:03;;;;;;;13.43;2.77;;;19.50;58.00;;;;;;5098676;28;20224;-69
2022/01/23 03:43:32;;;;;;;3.73;2.80;;;19.50;57.90;;;;;;5097916;28;20238;-69
2022/01/23 03:51:09;;;;;;;4.30;2.70;;;19.50;58.00;;;;;;5116781;28;20424;-69
2022/01/23 03:53:35;;;;;;;6.50;2.50;;;19.50;58.00;;;;;;5097795;28;20174;-70
2022/01/23 03:56:00;;;;;;;5.10;3.13;;;19.50;58.20;;;;;;5116297;28;20469;-69
2022/01/23 03:58:26;;;;;;;5.10;2.70;;;19.60;58.00;;;;;;5116854;28;20666;-69
2022/01/23 04:00:52;;;;;;;6.43;3.07;;;19.50;58.00;;;;;;5098142;28;20251;-69
2022/01/23 04:03:19;;;;;;;3.77;2.73;;;19.50;58.30;;;;;;5097887;28;20207;-68
2022/01/23 04:05:45;;;;;;;3.50;2.20;;;19.60;58.50;;;;;;5097893;28;20736;-69
2022/01/23 04:08:11;;;;;;;5.30;2.60;;;19.60;58.20;;;;;;5098305;28;20409;-69
2022/01/23 04:10:38;;;;;;;5.57;3.10;;;19.60;58.40;;;;;;5097994;28;20485;-68
2022/01/23 04:13:25;;;;;;;4.53;2.60;;;19.60;59.00;;;;;;5097717;28;20185;-68
2022/01/23 04:32:19;;;;;;;4.40;2.40;;;19.60;58.30;;;;;;5115856;28;20888;-69
2022/01/23 04:45:40;;;;;;;4.00;2.20;;;19.60;58.60;;;;;;5116321;28;20757;-68
2022/01/23 05:04:23;;;;;;;5.20;2.20;;;19.60;58.80;;;;;;5115602;28;20630;-68
2022/01/23 05:07:11;;;;;;;3.60;2.67;;;19.60;58.70;;;;;;5096761;28;20431;-68
2022/01/23 05:09:37;;;;;;;4.93;2.70;;;19.60;58.60;;;;;;5097078;28;20405;-69
2022/01/23 05:12:08;;;;;;;4.13;2.60;;;19.60;58.60;;;;;;5096830;28;20413;-68
2022/01/23 05:17:03;;;;;;;5.63;3.03;;;19.60;58.70;;;;;;5115232;28;20411;-68
2022/01/23 05:19:28;;;;;;;4.13;2.63;;;19.60;58.70;;;;;;5096482;28;20923;-68
2022/01/23 05:24:39;;;;;;;4.50;2.40;;;19.60;58.50;;;;;;5114576;28;20611;-69
2022/01/23 05:27:07;;;;;;;4.97;2.80;;;19.60;58.60;;;;;;5096801;28;20757;-68
2022/01/23 05:29:34;;;;;;;4.00;2.30;;;19.60;58.60;;;;;;5096341;28;20410;-67
2022/01/23 05:32:00;;;;;;;4.13;2.50;;;19.60;58.70;;;;;;5095661;28;20884;-68
2022/01/23 05:34:26;;;;;;;3.40;2.50;;;19.60;58.40;;;;;;5096270;28;20411;-68
2022/01/23 05:36:52;;;;;;;3.97;2.70;;;19.60;58.70;;;;;;5096457;28;20413;-68
2022/01/23 05:39:21;;;;;;;3.70;2.33;;;19.60;58.50;;;;;;5096580;28;20433;-68
2022/01/23 05:41:52;;;;;;;3.87;2.30;;;19.60;58.60;;;;;;5095754;28;20444;-68
2022/01/23 05:44:18;;;;;;;4.50;2.43;;;19.60;58.50;;;;;;5095989;28;20894;-68
2022/01/23 05:46:44;;;;;;;5.27;3.13;;;19.60;58.80;;;;;;5096302;28;20423;-69
2022/01/23 05:49:10;;;;;;;4.37;2.67;;;19.60;58.80;;;;;;5096337;28;20754;-69
2022/01/23 05:51:35;;;;;;;3.23;2.17;;;19.60;59.30;;;;;;5095659;28;20193;-70
2022/01/23 05:54:01;;;;;;;4.30;2.50;;;19.60;59.10;;;;;;5096145;28;20271;-69
2022/01/23 05:56:26;;;;;;;4.00;2.90;;;19.60;59.20;;;;;;5095907;28;20541;-69
2022/01/23 05:58:53;;;;;;;4.30;2.73;;;19.60;59.00;;;;;;5096165;28;20568;-69
2022/01/23 06:01:19;;;;;;;6.20;3.37;;;19.60;59.30;;;;;;5095330;28;20659;-69
2022/01/23 06:03:45;;;;;;;5.80;2.90;;;19.50;59.00;;;;;;5095867;28;20450;-69
2022/01/23 06:06:11;;;;;;;4.80;2.87;;;19.60;59.00;;;;;;5096109;28;20420;-69
2022/01/23 06:08:36;;;;;;;4.10;2.70;;;19.60;59.20;;;;;;5095742;28;20180;-69
2022/01/23 06:11:02;;;;;;;4.40;2.63;;;19.50;59.10;;;;;;5095922;28;20188;-68
2022/01/23 06:13:28;;;;;;;4.57;2.50;;;19.50;59.00;;;;;;5095470;28;20516;-68
2022/01/23 06:15:54;;;;;;;4.77;2.40;;;19.60;59.10;;;;;;5095770;28;20177;-68
2022/01/23 06:18:20;;;;;;;3.27;2.20;;;19.60;59.00;;;;;;5095861;28;20567;-68
2022/01/23 06:20:46;;;;;;;5.37;2.90;;;19.60;59.20;;;;;;5095059;28;21015;-68
2022/01/23 06:23:12;;;;;;;4.60;2.40;;;19.50;58.70;;;;;;5095317;28;20216;-69
2022/01/23 06:25:45;;;;;;;5.53;2.47;;;19.60;59.10;;;;;;5095809;28;20455;-69
2022/01/23 06:28:14;;;;;;;4.70;2.73;;;19.60;59.00;;;;;;5114034;28;20890;-69
2022/01/23 06:30:41;;;;;;;3.93;2.73;;;19.60;58.80;;;;;;5095500;28;20438;-67
2022/01/23 06:33:07;;;;;;;4.50;2.53;;;19.60;58.90;;;;;;5094907;28;20892;-69
2022/01/23 06:35:33;;;;;;;10.80;3.30;;;19.60;59.00;;;;;;5095292;28;20419;-69
2022/01/23 06:37:58;;;;;;;4.93;2.70;;;19.60;58.80;;;;;;5094713;28;20847;-67
2022/01/23 06:40:25;;;;;;;5.80;3.20;;;19.60;59.10;;;;;;5095282;28;20450;-70
2022/01/23 06:42:50;;;;;;;9.13;2.93;;;19.60;59.70;;;;;;5094831;28;20205;-70
2022/01/23 06:45:16;;;;;;;16.00;9.27;;;19.70;59.30;;;;;;5095069;28;20472;-68
2022/01/23 06:47:41;;;;;;;14.20;4.67;;;17.70;54.30;;;;;;5095352;28;20519;-69
2022/01/23 06:50:07;;;;;;;8.93;5.17;;;17.90;65.70;;;;;;5095312;28;20233;-67
2022/01/23 06:52:33;;;;;;;9.80;4.67;;;18.60;67.40;;;;;;5094979;28;20212;-67
2022/01/23 06:54:59;;;;;;;6.40;4.00;;;19.10;67.00;;;;;;5095347;28;20449;-67
2022/01/23 06:57:24;;;;;;;8.53;4.27;;;19.30;67.00;;;;;;5094973;28;20587;-67
2022/01/23 06:59:50;;;;;;;8.07;4.20;;;19.40;67.10;;;;;;5113214;28;20583;-67
2022/01/23 07:02:15;;;;;;;7.87;3.70;;;19.50;67.40;;;;;;5113080;28;20255;-67
2022/01/23 07:04:41;;;;;;;6.47;3.03;;;19.60;67.80;;;;;;5095529;28;20179;-67
2022/01/23 07:07:08;;;;;;;6.37;3.27;;;19.70;67.90;;;;;;5095312;28;20178;-67
2022/01/23 07:09:34;;;;;;;7.57;3.23;;;19.60;67.90;;;;;;5094691;28;20180;-70
2022/01/23 07:11:59;;;;;;;10.67;3.80;;;19.70;68.20;;;;;;5094712;28;20412;-69
2022/01/23 07:14:25;;;;;;;4.60;2.90;;;19.70;68.50;;;;;;5095054;28;20213;-69
2022/01/23 07:16:50;;;;;;;4.67;2.87;;;19.70;68.30;;;;;;5094968;28;20178;-69
2022/01/23 07:19:16;;;;;;;4.93;3.00;;;19.70;68.60;;;;;;5094881;28;20245;-68
2022/01/23 07:21:42;;;;;;;6.23;2.80;;;19.70;68.60;;;;;;5091449;28;20233;-69
2022/01/23 07:24:08;;;;;;;4.37;2.67;;;19.70;68.90;;;;;;5094944;28;20203;-68
2022/01/23 07:26:35;;;;;;;6.20;3.20;;;19.80;69.10;;;;;;5094922;28;20182;-70
2022/01/23 07:29:02;;;;;;;4.20;2.60;;;19.80;68.90;;;;;;5094758;28;20269;-70
2022/01/23 07:31:57;;;;;;;4.93;2.63;;;19.80;69.20;;;;;;5094186;28;20469;-68
2022/01/23 07:34:16;;;;;;;6.23;2.73;;;19.80;69.10;;;;;;5111292;28;20499;-67
2022/01/23 07:36:41;;;;;;;3.80;2.73;;;19.80;69.30;;;;;;5094754;28;20515;-65
2022/01/23 07:39:07;;;;;;;5.63;2.50;;;19.80;69.70;;;;;;5094650;28;20171;-69
2022/01/23 07:41:33;;;;;;;4.57;2.20;;;19.80;69.50;;;;;;5094321;28;20195;-69
2022/01/23 07:43:59;;;;;;;7.87;2.23;;;19.90;69.60;;;;;;5094592;28;20209;-68
2022/01/23 07:46:25;;;;;;;7.47;2.20;;;19.90;69.60;;;;;;5092244;28;20419;-73
2022/01/23 07:48:50;;;;;;;4.67;2.60;;;19.90;69.60;;;;;;5097000;28;20524;-75
2022/01/23 07:51:16;;;;;;;3.67;2.17;;;19.90;69.90;;;;;;5098387;28;20609;-75
2022/01/23 07:53:42;;;;;;;3.80;2.33;;;19.90;69.90;;;;;;5097974;28;20186;-70
2022/01/23 07:56:07;;;;;;;3.20;2.20;;;19.90;69.90;;;;;;5097827;28;20217;-72
2022/01/23 07:58:33;;;;;;;3.00;1.90;;;19.90;70.10;;;;;;5097312;28;20265;-68
2022/01/23 08:01:00;;;;;;;2.80;2.33;;;19.90;70.10;;;;;;5098023;28;20439;-69
2022/01/23 08:03:25;;;;;;;4.27;1.80;;;19.90;69.90;;;;;;5097701;28;21058;-70
2022/01/23 08:05:51;;;;;;;5.93;1.90;;;19.90;70.10;;;;;;5098150;28;20507;-68
2022/01/23 08:08:17;;;;;;;2.83;1.87;;;19.90;70.10;;;;;;5096842;28;20209;-68
2022/01/23 08:10:42;;;;;;;3.50;2.13;;;19.90;70.20;;;;;;5097182;28;20290;-68
2022/01/23 08:13:08;;;;;;;6.00;2.33;;;19.90;70.00;;;;;;5096519;28;20179;-69
2022/01/23 08:15:34;;;;;;;26.07;2.40;;;19.90;70.40;;;;;;5097834;28;20179;-70
2022/01/23 08:18:02;;;;;;;5.10;2.33;;;19.90;70.10;;;;;;5097783;28;20171;-73
2022/01/23 08:20:28;;;;;;;4.50;2.73;;;20.00;70.20;;;;;;5097036;28;20459;-71
2022/01/23 08:22:54;;;;;;;4.10;2.03;;;20.00;70.50;;;;;;5096595;28;20456;-68
2022/01/23 08:25:20;;;;;;;3.63;1.80;;;20.00;70.60;;;;;;5097809;28;20405;-70
2022/01/23 08:27:46;;;;;;;2.80;1.90;;;20.00;70.50;;;;;;5097443;28;20445;-70
2022/01/23 08:30:13;;;;;;;5.20;2.07;;;20.00;70.60;;;;;;5097259;28;20432;-70
2022/01/23 08:32:39;;;;;;;2.57;1.80;;;20.00;70.50;;;;;;5097065;28;20179;-68
2022/01/23 08:35:05;;;;;;;4.00;2.23;;;20.00;70.70;;;;;;5096776;28;20428;-71
2022/01/23 08:37:32;;;;;;;3.00;1.70;;;20.00;70.60;;;;;;5097467;28;20473;-72
2022/01/23 08:39:58;;;;;;;3.23;2.07;;;20.00;70.70;;;;;;5115630;28;20452;-69
2022/01/23 08:42:24;;;;;;;3.03;1.70;;;20.00;70.70;;;;;;5096881;28;20967;-67
2022/01/23 08:44:50;;;;;;;3.20;1.80;;;20.00;70.60;;;;;;5097129;28;20196;-67
2022/01/23 08:47:17;;;;;;;2.93;1.70;;;20.10;70.60;;;;;;5096762;28;20496;-67
2022/01/23 08:49:46;;;;;;;3.47;2.20;;;20.00;70.50;;;;;;5115688;28;20427;-68
2022/01/23 08:52:16;;;;;;;3.33;2.10;;;20.00;70.70;;;;;;5096864;28;20734;-69
2022/01/23 08:54:49;;;;;;;3.93;2.20;;;20.10;70.90;;;;;;5096129;28;20889;-67
2022/01/23 08:57:15;;;;;;;4.10;1.93;;;20.00;70.80;;;;;;5097085;28;20556;-67
2022/01/23 08:59:41;;;;;;;2.80;2.00;;;20.00;70.70;;;;;;5095371;28;20784;-65
2022/01/23 09:02:08;;;;;;;3.10;1.90;;;20.00;70.90;;;;;;5095786;28;20408;-67
2022/01/23 09:04:34;;;;;;;9.07;4.77;;;20.10;71.10;;;;;;5096947;28;20419;-70
2022/01/23 09:06:59;;;;;;;16.43;4.83;;;19.80;68.60;;;;;;5096915;28;20793;-68
2022/01/23 09:09:30;;;;;;;9.20;5.80;;;19.40;66.70;;;;;;5096752;28;20179;-69
2022/01/23 09:12:06;;;;;;;12.00;6.47;;;19.20;66.50;;;;;;5095709;28;20566;-69
2022/01/23 09:14:32;;;;;;;10.37;4.83;;;;;;;;;;5096815;28;20420;-71
2022/01/23 09:16:58;;;;;;;10.37;5.30;;;19.20;62.20;;;;;;5096890;28;20491;-71
2022/01/23 09:19:25;;;;;;;12.30;3.83;;;19.40;63.70;;;;;;5096363;28;20435;-70
2022/01/23 09:21:52;;;;;;;6.30;3.87;;;19.60;64.70;;;;;;5096015;28;20765;-71
2022/01/23 09:24:23;;;;;;;9.40;3.47;;;19.70;65.00;;;;;;5095850;28;20937;-69
2022/01/23 09:26:56;;;;;;;6.37;3.63;;;19.80;65.40;;;;;;5096482;28;20777;-74
2022/01/23 09:29:35;;;;;;;6.13;3.70;;;19.90;65.50;;;;;;5096427;28;20475;-70
2022/01/23 09:32:12;;;;;;;7.00;3.20;;;19.90;65.60;;;;;;5096186;28;20769;-67
2022/01/23 09:34:39;;;;;;;4.60;3.10;;;20.00;65.80;;;;;;5095997;28;20427;-68
2022/01/23 09:37:09;;;;;;;7.83;2.87;;;20.00;65.80;;;;;;5096052;28;20920;-69
2022/01/23 09:39:37;;;;;;;5.80;3.30;;;20.00;65.90;;;;;;5096087;28;20492;-69
2022/01/23 09:42:14;;;;;;;5.67;3.07;;;20.00;65.90;;;;;;5095884;28;20550;-67
2022/01/23 09:44:50;;;;;;;6.03;2.77;;;20.00;66.00;;;;;;5096152;28;20412;-69
2022/01/23 09:47:16;;;;;;;4.00;2.50;;;20.10;66.20;;;;;;5095767;28;20465;-70
2022/01/23 09:49:43;;;;;;;8.40;3.83;;;20.10;66.30;;;;;;5096022;28;20490;-68
2022/01/23 09:52:10;;;;;;;4.50;2.87;;;20.10;66.60;;;;;;5095515;28;20492;-68
2022/01/23 09:54:39;;;;;;;4.50;2.73;;;20.20;66.80;;;;;;5095483;28;20417;-69
2022/01/23 09:57:06;;;;;;;5.27;2.73;;;20.20;66.90;;;;;;5094328;28;20439;-70
2022/01/23 09:59:32;;;;;;;6.17;3.50;;;20.10;67.10;;;;;;5095626;28;20420;-70
2022/01/23 10:01:58;;;;;;;7.67;3.63;;;20.10;67.40;;;;;;5095514;28;20423;-70
2022/01/23 10:04:25;;;;;;;6.83;3.40;;;20.20;67.40;;;;;;5096046;28;20270;-70
2022/01/23 10:06:54;;;;;;;11.90;3.43;;;20.20;67.70;;;;;;5095942;28;20808;-69
2022/01/23 10:09:22;;;;;;;9.97;3.63;;;20.20;67.70;;;;;;5096057;28;20466;-68
2022/01/23 10:11:48;;;;;;;6.00;3.50;;;20.20;67.90;;;;;;5095098;28;20825;-68
2022/01/23 10:14:16;;;;;;;10.23;4.33;;;20.20;67.70;;;;;;5091804;28;20425;-71
2022/01/23 10:16:43;;;;;;;9.77;4.23;;;20.20;67.80;;;;;;5095532;28;20414;-67
2022/01/23 10:19:09;;;;;;;12.67;4.23;;;20.20;67.80;;;;;;5093312;28;20436;-68
2022/01/23 10:21:38;;;;;;;11.60;4.00;;;20.20;68.70;;;;;;5095076;28;20985;-69
2022/01/23 10:24:04;;;;;;;8.63;4.07;;;20.30;68.10;;;;;;5093875;28;20826;-68
2022/01/23 10:26:53;;;;;;;9.53;4.30;;;20.30;68.00;;;;;;5093680;28;20467;-68
2022/01/23 10:29:37;;;;;;;10.33;4.57;;;20.30;68.10;;;;;;5095457;28;20545;-68
2022/01/23 10:32:19;;;;;;;16.57;4.60;;;20.30;68.20;;;;;;5095182;28;20496;-71
2022/01/23 10:34:46;;;;;;;15.97;5.53;;;20.30;68.20;;;;;;5095543;28;20412;-70
2022/01/23 10:37:23;;;;;;;18.37;5.60;;;20.40;68.50;;;;;;5095000;28;20901;-70
2022/01/23 10:39:49;;;;;;;14.20;5.77;;;20.40;68.40;;;;;;5095322;28;20429;-68
2022/01/23 10:50:50;;;;;;;16.40;5.53;;;20.50;68.70;;;;;;5113582;28;20503;-68
2022/01/23 10:53:15;;;;;;;18.93;5.50;;;20.50;69.40;;;;;;5095052;28;20405;-68
2022/01/23 10:55:43;;;;;;;20.53;5.23;;;20.50;69.00;;;;;;5095199;28;20423;-67
2022/01/23 10:58:19;;;;;;;21.77;6.30;;;20.40;69.20;;;;;;5095188;28;20175;-69
2022/01/23 11:00:45;;;;;;;16.17;5.60;;;20.50;69.20;;;;;;5094835;28;20441;-68
2022/01/23 11:03:19;;;;;;;16.60;5.83;;;20.50;69.60;;;;;;5094643;28;20513;-66
2022/01/23 11:05:48;;;;;;;18.27;5.00;;;20.40;69.20;;;;;;5095316;28;20701;-65
2022/01/23 11:08:24;;;;;;;14.07;4.77;;;20.50;69.30;;;;;;5095173;28;20416;-65
2022/01/23 11:11:05;;;;;;;10.20;4.30;;;20.50;69.00;;;;;;5113467;28;20773;-65
2022/01/23 11:19:39;;;;;;;12.53;4.17;;;20.60;69.30;;;;;;5113190;28;20428;-68
2022/01/23 11:22:06;;;;;;;10.73;4.93;;;20.60;69.40;;;;;;5094791;28;20478;-68
2022/01/23 11:24:45;;;;;;;12.43;4.50;;;20.60;69.40;;;;;;5098671;28;20465;-66
2022/01/23 11:27:12;;;;;;;10.70;3.60;;;20.60;69.50;;;;;;5098563;28;20420;-67
2022/01/23 11:29:52;;;;;;;12.90;5.10;;;20.60;69.50;;;;;;5097683;28;20408;-67
2022/01/23 11:32:20;;;;;;;12.17;4.30;;;20.60;69.60;;;;;;5098572;28;20845;-65
2022/01/23 11:34:47;;;;;;;11.17;3.77;;;20.60;69.60;;;;;;5098569;28;20468;-68
2022/01/23 11:37:15;;;;;;;14.70;4.47;;;20.60;69.50;;;;;;5098262;28;20415;-67
2022/01/23 11:39:47;;;;;;;12.30;3.80;;;20.60;69.50;;;;;;5098456;28;20425;-67
2022/01/23 11:56:38;;;;;;;10.07;4.40;;;20.70;69.60;;;;;;5116687;28;20389;-68
2022/01/23 11:59:12;;;;;;;11.47;3.97;;;20.60;69.10;;;;;;5097113;28;20413;-65
2022/01/23 12:01:40;;;;;;;10.77;4.00;;;20.70;69.30;;;;;;5097422;28;20432;-65
2022/01/23 12:04:11;;;;;;;10.93;4.80;;;20.70;69.20;;;;;;5098015;28;20782;-67
2022/01/23 12:06:47;;;;;;;17.80;4.60;;;20.60;69.10;;;;;;5098045;28;20834;-66
2022/01/23 12:09:19;;;;;;;9.90;4.30;;;20.60;69.00;;;;;;5097733;28;20772;-68
2022/01/23 12:12:04;;;;;;;17.80;4.77;;;20.60;69.00;;;;;;5097907;28;20457;-69
2022/01/23 12:17:10;;;;;;;15.47;4.37;;;20.80;69.10;;;;;;5116449;28;20491;-68
2022/01/23 12:19:47;;;;;;;9.37;3.70;;;20.70;68.90;;;;;;5097818;28;20431;-67
2022/01/23 12:22:36;;;;;;;12.53;4.67;;;20.70;68.70;;;;;;5097483;28;20400;-68
2022/01/23 12:25:15;;;;;;;13.57;4.37;;;20.80;68.50;;;;;;5097984;28;20405;-69
2022/01/23 12:27:41;;;;;;;13.80;4.40;;;20.80;68.40;;;;;;5097548;28;20488;-70
2022/01/23 12:30:22;;;;;;;14.63;4.53;;;20.80;68.50;;;;;;5097570;28;20503;-66
2022/01/23 12:33:15;;;;;;;17.67;4.60;;;20.80;68.20;;;;;;5097396;28;20496;-68
2022/01/23 12:35:44;;;;;;;14.67;4.13;;;20.80;68.00;;;;;;5096271;28;20421;-67
2022/01/23 12:38:12;;;;;;;9.90;3.63;;;20.80;68.10;;;;;;5097659;28;20488;-67
2022/01/23 12:40:43;;;;;;;12.90;4.10;;;20.80;68.00;;;;;;5097399;28;20521;-70
2022/01/23 12:43:25;;;;;;;9.70;3.80;;;20.80;67.90;;;;;;5097113;28;20453;-69
2022/01/23 12:45:56;;;;;;;15.50;3.60;;;20.80;68.00;;;;;;5097421;28;20405;-69
2022/01/23 12:48:25;;;;;;;9.17;3.57;;;20.80;67.70;;;;;;5097517;28;20412;-69
2022/01/23 12:50:56;;;;;;;10.67;4.03;;;20.80;67.90;;;;;;5097004;28;20428;-71
2022/01/23 12:53:33;;;;;;;15.10;3.60;;;20.80;68.50;;;;;;5096896;28;20402;-67
2022/01/23 12:56:07;;;;;;;8.23;3.47;;;20.80;67.80;;;;;;5097371;28;20405;-72
2022/01/23 12:58:33;;;;;;;13.90;3.50;;;20.90;67.50;;;;;;5097422;28;20485;-73
2022/01/23 13:01:21;;;;;;;9.00;3.00;;;20.80;67.60;;;;;;5096851;28;20777;-73
2022/01/23 13:03:53;;;;;;;6.40;3.20;;;20.80;67.60;;;;;;5094828;28;20453;-76
2022/01/23 13:06:49;;;;;;;8.77;3.80;;;20.90;67.50;;;;;;5111304;28;20425;-66
2022/01/23 13:09:18;;;;;;;8.20;3.57;;;20.80;67.40;;;;;;5095185;28;20456;-67
2022/01/23 13:15:13;;;;;;;8.50;3.90;;;20.80;67.20;;;;;;5111417;28;20428;-68
2022/01/23 13:17:54;;;;;;;6.57;3.40;;;20.80;67.20;;;;;;5114787;28;20466;-65
2022/01/23 13:26:33;;;;;;;8.00;3.83;;;20.90;67.30;;;;;;5114888;28;20726;-68
2022/01/23 13:34:48;;;;;;;9.10;3.90;;;20.80;67.30;;;;;;5113771;28;20889;-69
2022/01/23 13:37:18;;;;;;;9.73;4.07;;;21.10;67.60;;;;;;5095728;28;20421;-70
2022/01/23 13:40:01;;;;;;;6.60;2.93;;;20.80;67.30;;;;;;5096045;28;20421;-67
2022/01/23 14:02:15;;;;;;;6.80;2.70;;;20.80;67.30;;;;;;5110050;28;20446;-64
2022/01/23 14:05:12;;;;;;;12.73;3.30;;;20.80;67.20;;;;;;5095509;28;20453;-64
2022/01/23 14:07:39;;;;;;;10.40;2.90;;;20.80;67.10;;;;;;5102147;28;20940;-65
2022/01/23 14:10:18;;;;;;;12.10;3.50;;;21.00;67.50;;;;;;5112923;28;20436;-66
2022/01/23 14:12:47;;;;;;;13.73;3.33;;;20.70;67.40;;;;;;5094881;28;20777;-68
2022/01/23 14:15:22;;;;;;;9.63;3.10;;;20.80;67.50;;;;;;5094891;28;20417;-67
2022/01/23 14:18:09;;;;;;;6.20;3.27;;;20.80;67.10;;;;;;5095181;28;20400;-66
2022/01/23 14:20:42;;;;;;;6.20;2.60;;;20.80;67.30;;;;;;5095231;28;20984;-66
2022/01/23 14:23:14;;;;;;;5.93;2.50;;;20.80;67.20;;;;;;5113544;28;20449;-66
2022/01/23 14:25:45;;;;;;;9.63;3.17;;;20.70;67.20;;;;;;5095468;28;20444;-67
2022/01/23 14:28:16;;;;;;;10.97;3.10;;;20.80;67.30;;;;;;5078579;28;20445;-66
2022/01/23 14:30:51;;;;;;;8.90;3.00;;;20.70;67.10;;;;;;5095332;28;20771;-66
2022/01/23 14:33:22;;;;;;;5.53;2.47;;;20.70;67.10;;;;;;5095094;28;20473;-65
2022/01/23 14:35:48;;;;;;;8.67;2.87;;;20.70;67.10;;;;;;5095189;28;20761;-67
2022/01/23 14:38:18;;;;;;;9.40;3.00;;;20.70;67.10;;;;;;5095213;28;20471;-65
2022/01/23 14:40:58;;;;;;;8.73;2.73;;;20.70;67.20;;;;;;5094771;28;20494;-67
2022/01/23 14:43:40;;;;;;;5.83;2.87;;;20.70;67.20;;;;;;5094719;28;20466;-66
2022/01/23 14:46:08;;;;;;;5.90;2.90;;;20.70;67.00;;;;;;5094943;28;20405;-67
2022/01/23 14:48:39;;;;;;;7.60;2.80;;;20.70;67.60;;;;;;5094477;28;20409;-68
2022/01/23 14:51:06;;;;;;;14.47;2.30;;;20.70;67.60;;;;;;5093924;28;21005;-68
2022/01/23 14:53:35;;;;;;;7.63;2.77;;;20.70;68.10;;;;;;5094418;28;20417;-69
2022/01/23 14:56:03;;;;;;;6.23;2.60;;;20.70;68.00;;;;;;5095110;28;20429;-68
2022/01/23 14:58:31;;;;;;;3.97;2.10;;;20.70;67.80;;;;;;5094237;28;20496;-69
2022/01/23 15:00:57;;;;;;;3.70;2.47;;;20.70;67.60;;;;;;5094720;28;20464;-70
2022/01/23 15:03:25;;;;;;;7.23;2.73;;;20.70;67.60;;;;;;5094099;28;20956;-68
2022/01/23 15:05:52;;;;;;;6.60;2.63;;;20.80;67.70;;;;;;5092777;28;20503;-69
2022/01/23 15:08:22;;;;;;;5.73;2.57;;;20.70;67.60;;;;;;5111594;28;20504;-72
2022/01/23 15:10:49;;;;;;;9.93;2.90;;;20.70;67.40;;;;;;5094571;28;20929;-69
2022/01/23 15:13:15;;;;;;;9.50;2.90;;;20.70;67.60;;;;;;5094075;28;20897;-69
2022/01/23 15:15:41;;;;;;;5.27;2.53;;;20.70;67.60;;;;;;5094893;28;20448;-68
2022/01/23 15:18:08;;;;;;;12.33;2.43;;;20.70;67.40;;;;;;5094781;28;20413;-67
2022/01/23 15:20:35;;;;;;;9.63;3.40;;;20.60;67.30;;;;;;5094765;28;20999;-68
2022/01/23 15:23:02;;;;;;;4.70;2.30;;;20.60;67.50;;;;;;5094550;28;20597;-67
2022/01/23 15:25:29;;;;;;;5.73;2.30;;;20.70;67.30;;;;;;5094898;28;20452;-67
2022/01/23 15:27:55;;;;;;;5.10;2.00;;;20.60;67.30;;;;;;5094918;28;20444;-69
2022/01/23 15:30:23;;;;;;;3.50;1.80;;;20.70;67.40;;;;;;5093766;28;20936;-68
2022/01/23 15:32:51;;;;;;;3.70;2.20;;;20.60;67.40;;;;;;5093197;28;20420;-69
2022/01/23 15:35:18;;;;;;;17.37;2.30;;;20.60;67.30;;;;;;5094139;28;20416;-69
2022/01/23 15:37:44;;;;;;;6.57;2.60;;;20.70;67.50;;;;;;5094007;28;20417;-69
2022/01/23 15:40:11;;;;;;;2.80;1.80;;;20.60;67.30;;;;;;5093768;28;20437;-70
2022/01/23 15:42:39;;;;;;;6.43;2.40;;;20.60;67.20;;;;;;5093259;28;20471;-70
2022/01/23 15:45:06;;;;;;;4.27;2.20;;;20.60;67.20;;;;;;5094516;28;20807;-68
2022/01/23 15:47:32;;;;;;;5.53;1.70;;;20.60;67.30;;;;;;5094704;28;20466;-69
2022/01/23 15:49:57;;;;;;;5.10;2.40;;;20.60;67.30;;;;;;5094625;28;20498;-69
2022/01/23 15:52:23;;;;;;;5.20;2.07;;;20.60;67.30;;;;;;5094460;28;20413;-70
2022/01/23 15:54:49;;;;;;;7.77;2.83;;;20.60;67.30;;;;;;5094406;28;20224;-69
2022/01/23 15:57:15;;;;;;;5.80;2.77;;;20.60;67.10;;;;;;5094964;28;20545;-69
2022/01/23 15:59:41;;;;;;;7.90;2.57;;;20.60;67.10;;;;;;5094504;28;20194;-67
2022/01/23 16:02:10;;;;;;;7.63;2.30;;;20.60;67.20;;;;;;5092603;28;20417;-67
2022/01/23 16:04:39;;;;;;;5.33;2.17;;;20.60;67.20;;;;;;5094383;28;20186;-68
2022/01/23 16:07:12;;;;;;;5.23;1.97;;;20.60;67.30;;;;;;5093919;28;20412;-68
2022/01/23 16:09:38;;;;;;;5.80;2.03;;;20.60;67.30;;;;;;5095159;28;20940;-69
2022/01/23 16:12:04;;;;;;;3.70;2.47;;;20.60;67.10;;;;;;5097548;28;20492;-68
2022/01/23 16:14:30;;;;;;;5.90;2.30;;;20.60;67.10;;;;;;5097649;28;20781;-69
2022/01/23 16:16:56;;;;;;;3.47;1.70;;;20.60;67.10;;;;;;5116245;28;20405;-68
2022/01/23 16:19:22;;;;;;;6.60;2.70;;;20.60;67.10;;;;;;5097346;28;20654;-68
2022/01/23 16:21:51;;;;;;;4.97;1.93;;;20.60;67.20;;;;;;5097553;28;20893;-69
2022/01/23 16:24:17;;;;;;;4.33;2.10;;;20.60;67.30;;;;;;5096729;28;20202;-67
2022/01/23 16:26:43;;;;;;;5.10;2.17;;;20.60;67.30;;;;;;5097694;28;20416;-68
2022/01/23 16:29:09;;;;;;;9.70;2.23;;;20.60;67.10;;;;;;5097308;28;20176;-69
2022/01/23 16:31:34;;;;;;;7.47;2.17;;;20.60;67.10;;;;;;5097176;28;20219;-69
2022/01/23 16:34:00;;;;;;;4.23;2.03;;;20.60;67.30;;;;;;5097026;28;20523;-70
2022/01/23 16:36:26;;;;;;;3.70;2.00;;;20.60;67.10;;;;;;5097205;28;20592;-70
2022/01/23 16:38:51;;;;;;;3.30;1.90;;;20.60;67.90;;;;;;5097604;28;20178;-67
2022/01/23 16:41:17;;;;;;;6.30;2.13;;;20.60;67.20;;;;;;5097437;28;20194;-68